Time;durP1;ratioP1;P1;durP2;ratioP2;P2;SDS_P1;SDS_P2;PMS_P1;PMS_P2;Temp;Humidity;BMP_temperature;BMP_pressure;BME280_temperature;BME280_humidity;BME280_pressure;Samples;Min_cycle;Max_cycle;Signal;HPM_P1;HPM_P2
2023/01/16 00:00:55;;;;;;;;;;;;;;;5.07;67.91;99618.69;4128139;28;20020;-60
2023/01/16 00:02:57;;;;;;;;;;;;;;;5.08;67.71;99594.44;4127592;28;20017;-61
2023/01/16 00:04:58;;;;;;;;;;;;;;;5.09;67.96;99597.94;4128298;28;20468;-60
2023/01/16 00:07:02;;;;;;;;;;;;;;;5.07;67.86;99592.75;4127791;28;20044;-61
2023/01/16 00:09:04;;;;;;;;;;;;;;;5.04;67.72;99601.94;4128723;28;20017;-59
2023/01/16 00:11:06;;;;;;;;;;;;;;;5.01;67.84;99594.25;4128007;28;20021;-61
2023/01/16 00:13:09;;;;;;;;;;;;;;;4.97;68.00;99597.44;4127622;28;20374;-60
2023/01/16 00:15:11;;;;;;;;;;;;;;;4.99;67.81;99593.59;4128473;28;20020;-59
2023/01/16 00:17:13;;;;;;;;;;;;;;;4.99;67.92;99592.78;4127924;28;19971;-60
2023/01/16 00:19:15;;;;;;;;;;;;;;;4.97;68.22;99600.09;4129832;28;20360;-60
2023/01/16 00:21:18;;;;;;;;;;;;;;;4.96;68.22;99585.06;4130844;28;20025;-61
2023/01/16 00:23:21;;;;;;;;;;;;;;;4.92;67.91;99586.41;4130554;28;20020;-60
2023/01/16 00:25:23;;;;;;;;;;;;;;;4.88;68.25;99586.75;4131637;28;20395;-61
2023/01/16 00:27:25;;;;;;;;;;;;;;;4.90;68.03;99586.56;4130895;28;20020;-60
2023/01/16 00:29:27;;;;;;;;;;;;;;;4.91;68.33;99588.25;4111230;28;20016;-61
2023/01/16 00:31:29;;;;;;;;;;;;;;;4.88;68.31;99586.75;4130826;28;20411;-60
2023/01/16 00:33:31;;;;;;;;;;;;;;;4.87;68.24;99584.25;4129461;28;20016;-61
2023/01/16 00:35:33;;;;;;;;;;;;;;;4.86;68.17;99586.09;4129820;28;20016;-61
2023/01/16 00:37:35;;;;;;;;;;;;;;;4.86;68.29;99596.78;4130421;28;20436;-60
2023/01/16 00:39:39;;;;;;;;;;;;;;;4.84;68.36;99592.59;4131526;28;20021;-60
2023/01/16 00:41:41;;;;;;;;;;;;;;;4.81;68.12;99593.78;4128864;28;20020;-60
2023/01/16 00:43:43;;;;;;;;;;;;;;;4.80;68.21;99594.78;4131936;28;20463;-59
2023/01/16 00:45:45;;;;;;;;;;;;;;;4.77;68.43;99600.47;4131762;28;20013;-61
2023/01/16 00:47:47;;;;;;;;;;;;;;;4.78;68.26;99599.47;4130523;28;20028;-60
2023/01/16 00:49:49;;;;;;;;;;;;;;;4.76;68.32;99600.63;4131182;28;20386;-61
2023/01/16 00:51:51;;;;;;;;;;;;;;;4.74;68.67;99599.97;4129167;28;20468;-62
2023/01/16 00:53:52;;;;;;;;;;;;;;;4.73;68.39;99593.78;4131512;28;20013;-62
2023/01/16 00:55:56;;;;;;;;;;;;;;;4.74;68.57;99594.63;4130289;28;20038;-61
2023/01/16 00:57:58;;;;;;;;;;;;;;;4.72;68.38;99610.00;4128971;28;20002;-61
2023/01/16 01:00:00;;;;;;;;;;;;;;;4.71;68.41;99601.13;4129749;28;20013;-60
2023/01/16 01:02:02;;;;;;;;;;;;;;;4.69;68.33;99595.94;4129557;28;20068;-60
2023/01/16 01:04:04;;;;;;;;;;;;;;;4.68;68.46;99598.78;4130648;28;20004;-59
2023/01/16 01:06:06;;;;;;;;;;;;;;;4.67;68.43;99594.44;4130711;28;20021;-59
2023/01/16 01:08:09;;;;;;;;;;;;;;;4.63;68.49;99590.44;4130268;28;20013;-61
2023/01/16 01:10:11;;;;;;;;;;;;;;;4.64;68.53;99590.28;4108408;28;20004;-60
2023/01/16 01:12:16;;;;;;;;;;;;;;;4.63;68.68;99590.44;4129494;28;20506;-59
2023/01/16 01:14:18;;;;;;;;;;;;;;;4.59;68.64;99592.63;4130964;28;20021;-61
2023/01/16 01:16:20;;;;;;;;;;;;;;;4.60;68.64;99591.59;4131430;28;20032;-60
2023/01/16 01:18:21;;;;;;;;;;;;;;;4.59;68.87;99597.13;4129629;28;19931;-58
2023/01/16 01:20:23;;;;;;;;;;;;;;;4.57;68.68;99599.13;4130733;28;20016;-62
2023/01/16 01:22:26;;;;;;;;;;;;;;;4.53;68.79;99595.09;4130465;28;20475;-61
2023/01/16 01:24:28;;;;;;;;;;;;;;;4.50;69.19;99594.44;4131456;28;20048;-61
2023/01/16 01:26:30;;;;;;;;;;;;;;;4.50;68.75;99591.78;4132013;28;20013;-59
2023/01/16 01:28:34;;;;;;;;;;;;;;;4.47;68.88;99591.28;4130996;28;20013;-60
2023/01/16 01:30:36;;;;;;;;;;;;;;;4.47;69.05;99594.78;4131508;28;20028;-60
2023/01/16 01:32:37;;;;;;;;;;;;;;;4.44;69.05;99600.44;4130993;28;20061;-61
2023/01/16 01:34:39;;;;;;;;;;;;;;;4.46;69.30;99592.25;4131789;28;20016;-60
2023/01/16 01:36:42;;;;;;;;;;;;;;;4.47;69.27;99592.09;4131139;28;20102;-61
2023/01/16 01:38:46;;;;;;;;;;;;;;;4.46;69.44;99585.06;4130173;28;20013;-61
2023/01/16 01:40:48;;;;;;;;;;;;;;;4.45;69.32;99587.91;4129791;28;20025;-61
2023/01/16 01:42:53;;;;;;;;;;;;;;;4.44;69.26;99588.94;4126992;28;20117;-61
2023/01/16 01:44:56;;;;;;;;;;;;;;;4.40;69.28;99577.72;4130990;28;20381;-61
2023/01/16 01:46:58;;;;;;;;;;;;;;;4.39;69.52;99580.53;4130120;28;20489;-61
2023/01/16 01:49:01;;;;;;;;;;;;;;;4.36;69.72;99587.09;4129672;28;20012;-58
2023/01/16 01:51:04;;;;;;;;;;;;;;;4.37;69.47;99583.38;4130805;28;20049;-60
2023/01/16 01:53:08;;;;;;;;;;;;;;;4.32;69.48;99581.22;4129892;28;20009;-62
2023/01/16 01:55:12;;;;;;;;;;;;;;;4.30;69.72;99583.22;4130612;28;20500;-61
2023/01/16 01:57:18;;;;;;;;;;;;;;;4.27;69.90;99580.88;4144027;28;19921;-60
2023/01/16 01:59:22;;;;;;;;;;;;;;;4.26;69.86;99587.25;4131142;28;19926;-60
2023/01/16 02:01:25;;;;;;;;;;;;;;;4.24;70.32;99588.41;4130252;28;20016;-60
2023/01/16 02:03:28;;;;;;;;;;;;;;;4.22;70.21;99585.88;4129278;28;20352;-59
2023/01/16 02:05:33;;;;;;;;;;;;;;;4.21;70.39;99578.84;4130353;28;20012;-61
2023/01/16 02:07:35;;;;;;;;;;;;;;;4.21;70.51;99589.53;4129725;28;20336;-59
2023/01/16 02:09:37;;;;;;;;;;;;;;;4.19;70.65;99586.22;4130335;28;20009;-60
2023/01/16 02:11:40;;;;;;;;;;;;;;;4.17;70.62;99585.56;4128774;28;20040;-62
2023/01/16 02:13:41;;;;;;;;;;;;;;;4.13;70.76;99582.34;4130418;28;20008;-62
2023/01/16 02:20:20;;;;;;;;;;;;;;;4.08;71.11;99584.69;4129975;28;19930;-60
2023/01/16 02:22:40;;;;;;;;;;;;;;;4.08;71.40;99592.69;4129154;28;20028;-60
2023/01/16 02:24:50;;;;;;;;;;;;;;;4.06;71.28;99583.16;4128725;28;20569;-61
2023/01/16 02:26:56;;;;;;;;;;;;;;;4.06;71.30;99577.81;4128967;28;20016;-62
2023/01/16 02:29:17;;;;;;;;;;;;;;;4.05;71.40;99579.66;4113407;28;20013;-61
2023/01/16 02:31:23;;;;;;;;;;;;;;;4.02;71.69;99576.50;4129917;28;20362;-61
2023/01/16 02:33:27;;;;;;;;;;;;;;;4.01;71.89;99570.28;4129134;28;20008;-59
2023/01/16 02:35:32;;;;;;;;;;;;;;;4.02;72.07;99576.50;4129926;28;20017;-61
2023/01/16 02:37:37;;;;;;;;;;;;;;;4.00;72.12;99570.44;4129151;28;20016;-60
2023/01/16 02:39:40;;;;;;;;;;;;;;;4.02;71.92;99577.31;4130134;28;20016;-61
2023/01/16 02:41:45;;;;;;;;;;;;;;;4.01;72.01;99562.28;4127912;28;19923;-61
2023/01/16 02:43:48;;;;;;;;;;;;;;;4.04;71.88;99556.59;4129226;28;20020;-61
2023/01/16 02:45:51;;;;;;;;;;;;;;;4.03;71.85;99557.63;4129879;28;20012;-60
2023/01/16 02:47:57;;;;;;;;;;;;;;;4.02;71.89;99558.63;4127740;28;20045;-61
2023/01/16 02:50:01;;;;;;;;;;;;;;;3.99;71.98;99558.13;4129750;28;20021;-61
2023/01/16 02:52:05;;;;;;;;;;;;;;;3.94;72.32;99550.59;4129261;28;20340;-62
2023/01/16 02:54:10;;;;;;;;;;;;;;;3.92;72.11;99541.91;4129188;28;20360;-62
2023/01/16 02:56:13;;;;;;;;;;;;;;;3.90;72.18;99547.41;4129758;28;20016;-62
2023/01/16 02:58:15;;;;;;;;;;;;;;;3.88;72.37;99545.91;4128690;28;20474;-62
2023/01/16 03:00:19;;;;;;;;;;;;;;;3.86;72.67;99539.88;4129654;28;20020;-62
2023/01/16 03:02:21;;;;;;;;;;;;;;;3.84;72.40;99540.06;4129086;28;20339;-62
2023/01/16 03:04:40;;;;;;;;;;;;;;;3.87;72.67;99536.19;4128060;28;20016;-62
2023/01/16 03:06:43;;;;;;;;;;;;;;;3.88;72.55;99529.88;4128904;28;20037;-62
2023/01/16 03:08:45;;;;;;;;;;;;;;;3.90;72.51;99517.19;4129181;28;20020;-62
2023/01/16 03:11:06;;;;;;;;;;;;;;;3.91;72.59;99519.69;4129364;28;20028;-62
2023/01/16 03:13:12;;;;;;;;;;;;;;;3.92;72.29;99517.88;4119032;28;20020;-61
2023/01/16 03:15:14;;;;;;;;;;;;;;;3.92;72.45;99512.53;4129169;28;20013;-62
2023/01/16 03:17:19;;;;;;;;;;;;;;;3.92;72.36;99515.19;4128393;28;20423;-62
2023/01/16 03:19:25;;;;;;;;;;;;;;;3.94;72.22;99515.88;4129456;28;20004;-62
2023/01/16 03:21:38;;;;;;;;;;;;;;;3.94;72.29;99511.34;4129435;28;20012;-62
2023/01/16 03:23:41;;;;;;;;;;;;;;;3.94;72.13;99505.16;4128381;28;20292;-62
2023/01/16 03:25:44;;;;;;;;;;;;;;;3.93;72.49;99498.16;4129252;28;20016;-61
2023/01/16 03:27:49;;;;;;;;;;;;;;;3.93;72.40;99495.47;4128368;28;20009;-62
2023/01/16 03:29:52;;;;;;;;;;;;;;;3.90;72.36;99488.66;4129331;28;20009;-61
2023/01/16 03:31:55;;;;;;;;;;;;;;;3.87;72.60;99490.78;4128081;28;20024;-62
2023/01/16 03:34:02;;;;;;;;;;;;;;;3.91;72.73;99497.50;4128702;28;20012;-62
2023/01/16 03:36:05;;;;;;;;;;;;;;;3.91;72.68;99492.97;4129201;28;20021;-62
2023/01/16 03:38:10;;;;;;;;;;;;;;;3.92;72.54;99500.00;4127905;28;20001;-62
2023/01/16 03:40:13;;;;;;;;;;;;;;;3.91;72.59;99489.47;4128596;28;20024;-61
2023/01/16 03:42:15;;;;;;;;;;;;;;;3.85;72.64;99490.13;4127127;28;20013;-62
2023/01/16 03:44:18;;;;;;;;;;;;;;;3.81;72.69;99489.63;4128888;28;20538;-62
2023/01/16 03:46:21;;;;;;;;;;;;;;;3.77;73.17;99486.44;4128629;28;20091;-62
2023/01/16 03:48:23;;;;;;;;;;;;;;;3.74;73.17;99481.41;4127716;28;20348;-61
2023/01/16 03:50:25;;;;;;;;;;;;;;;3.73;73.50;99484.25;4128728;28;20027;-62
2023/01/16 03:52:28;;;;;;;;;;;;;;;3.71;73.25;99487.09;4127995;28;20371;-62
2023/01/16 03:54:33;;;;;;;;;;;;;;;3.69;73.37;99488.25;4127493;28;20420;-62
2023/01/16 03:56:36;;;;;;;;;;;;;;;3.64;73.90;99475.41;4127642;28;20021;-62
2023/01/16 03:58:39;;;;;;;;;;;;;;;3.62;73.67;99482.75;4128731;28;20024;-62
2023/01/16 04:00:44;;;;;;;;;;;;;;;3.63;73.88;99478.22;4128192;28;20447;-62
2023/01/16 04:02:47;;;;;;;;;;;;;;;3.60;73.85;99461.56;4128398;28;20017;-62
2023/01/16 04:04:50;;;;;;;;;;;;;;;3.63;74.05;99465.72;4129036;28;19930;-62
2023/01/16 04:06:53;;;;;;;;;;;;;;;3.64;74.13;99463.88;4128145;28;20024;-61
2023/01/16 04:08:55;;;;;;;;;;;;;;;3.64;73.96;99467.38;4128829;28;20024;-62
2023/01/16 04:10:58;;;;;;;;;;;;;;;3.63;74.24;99460.38;4127803;28;20084;-62
2023/01/16 04:13:01;;;;;;;;;;;;;;;3.64;74.12;99455.84;4127909;28;20023;-62
2023/01/16 04:15:04;;;;;;;;;;;;;;;3.63;74.40;99444.34;4128218;28;20008;-62
2023/01/16 04:17:06;;;;;;;;;;;;;;;3.64;74.37;99430.00;4126822;28;20020;-62
2023/01/16 04:19:09;;;;;;;;;;;;;;;3.67;74.40;99440.38;4128405;28;20013;-62
2023/01/16 04:21:10;;;;;;;;;;;;;;;3.66;74.54;99444.03;4127684;28;20008;-60
2023/01/16 04:23:12;;;;;;;;;;;;;;;3.62;74.56;99437.34;4128167;28;20044;-62
2023/01/16 04:25:14;;;;;;;;;;;;;;;3.59;74.40;99433.16;4128446;28;20377;-61
2023/01/16 04:27:18;;;;;;;;;;;;;;;3.57;74.36;99434.31;4128091;28;20020;-61
2023/01/16 04:29:20;;;;;;;;;;;;;;;3.56;74.58;99433.50;4128506;28;20052;-61
2023/01/16 04:31:23;;;;;;;;;;;;;;;3.55;74.80;99415.78;4128707;28;20467;-61
2023/01/16 04:33:25;;;;;;;;;;;;;;;3.56;74.71;99417.47;4127748;28;20020;-62
2023/01/16 04:35:27;;;;;;;;;;;;;;;3.54;74.68;99422.16;4128105;28;20016;-60
2023/01/16 04:37:29;;;;;;;;;;;;;;;3.55;74.73;99415.78;4127557;28;20012;-62
2023/01/16 04:39:31;;;;;;;;;;;;;;;3.54;74.67;99408.81;4128793;28;20024;-61
2023/01/16 04:41:40;;;;;;;;;;;;;;;3.53;74.55;99415.13;4128532;28;20358;-62
2023/01/16 04:43:43;;;;;;;;;;;;;;;3.50;74.73;99406.63;4126800;28;20583;-61
2023/01/16 04:45:45;;;;;;;;;;;;;;;3.46;74.69;99402.59;4128181;28;20052;-62
2023/01/16 04:47:48;;;;;;;;;;;;;;;3.47;74.85;99402.44;4127347;28;20029;-62
2023/01/16 04:49:49;;;;;;;;;;;;;;;3.45;74.78;99396.44;4128420;28;20024;-62
2023/01/16 04:51:51;;;;;;;;;;;;;;;3.43;74.70;99396.59;4126810;28;20020;-61
2023/01/16 04:53:53;;;;;;;;;;;;;;;3.42;74.68;99396.78;4127702;28;20016;-61
2023/01/16 04:55:55;;;;;;;;;;;;;;;3.42;74.91;99386.91;4128526;28;20028;-62
2023/01/16 04:57:57;;;;;;;;;;;;;;;3.41;74.63;99377.22;4126994;28;20020;-62
2023/01/16 05:00:01;;;;;;;;;;;;;;;3.39;74.70;99376.56;4127896;28;20004;-62
2023/01/16 05:02:03;;;;;;;;;;;;;;;3.39;74.69;99381.91;4127517;28;20016;-62
2023/01/16 05:04:05;;;;;;;;;;;;;;;3.37;74.74;99383.06;4128430;28;20397;-62
2023/01/16 05:06:07;;;;;;;;;;;;;;;3.35;74.87;99377.06;4131311;28;19961;-62
2023/01/16 05:08:18;;;;;;;;;;;;;;;3.33;74.96;99371.88;4130775;28;20021;-62
2023/01/16 05:10:20;;;;;;;;;;;;;;;3.29;74.92;99372.38;4131475;28;20020;-61
2023/01/16 05:12:22;;;;;;;;;;;;;;;3.27;75.04;99375.19;4130618;28;19996;-62
2023/01/16 05:14:24;;;;;;;;;;;;;;;3.29;75.37;99375.91;4131447;28;20017;-62
2023/01/16 05:16:27;;;;;;;;;;;;;;;3.28;75.21;99368.88;4131047;28;20032;-61
2023/01/16 05:18:29;;;;;;;;;;;;;;;3.27;75.24;99361.03;4130360;28;20027;-62
2023/01/16 05:20:31;;;;;;;;;;;;;;;3.25;75.38;99363.88;4131165;28;20013;-62
2023/01/16 05:22:33;;;;;;;;;;;;;;;3.24;75.27;99364.84;4130586;28;20344;-62
2023/01/16 05:24:35;;;;;;;;;;;;;;;3.25;75.29;99366.53;4131070;28;20490;-61
2023/01/16 05:26:37;;;;;;;;;;;;;;;3.27;75.52;99369.88;4130579;28;19949;-62
2023/01/16 05:28:39;;;;;;;;;;;;;;;3.28;75.54;99357.38;4130938;28;20008;-62
2023/01/16 05:30:40;;;;;;;;;;;;;;;3.28;75.47;99357.38;4130735;28;20021;-62
2023/01/16 05:32:44;;;;;;;;;;;;;;;3.28;75.43;99363.53;4129524;28;20016;-62
2023/01/16 05:34:46;;;;;;;;;;;;;;;3.25;75.22;99354.03;4131159;28;20025;-62
2023/01/16 05:36:48;;;;;;;;;;;;;;;3.25;75.49;99362.03;4130613;28;20012;-60
2023/01/16 05:38:51;;;;;;;;;;;;;;;3.23;75.78;99364.03;4130834;28;20032;-62
2023/01/16 05:40:53;;;;;;;;;;;;;;;3.23;75.47;99358.69;4130942;28;20004;-62
2023/01/16 05:42:55;;;;;;;;;;;;;;;3.25;75.77;99366.53;4129540;28;19997;-62
2023/01/16 05:44:57;;;;;;;;;;;;;;;3.25;75.68;99362.03;4130783;28;20187;-62
2023/01/16 05:46:59;;;;;;;;;;;;;;;3.27;75.70;99353.84;4130216;28;19976;-62
2023/01/16 05:49:02;;;;;;;;;;;;;;;3.27;75.51;99350.38;4130883;28;20020;-62
2023/01/16 05:51:04;;;;;;;;;;;;;;;3.25;75.46;99343.34;4130510;28;20731;-62
2023/01/16 05:53:06;;;;;;;;;;;;;;;3.27;75.65;99348.53;4130132;28;20008;-62
2023/01/16 05:55:08;;;;;;;;;;;;;;;3.27;75.70;99340.50;4129838;28;20371;-62
2023/01/16 05:57:10;;;;;;;;;;;;;;;3.27;75.57;99339.69;4128233;28;20020;-62
2023/01/16 05:59:12;;;;;;;;;;;;;;;3.29;75.72;99335.00;4130095;28;20008;-62
2023/01/16 06:01:14;;;;;;;;;;;;;;;3.29;75.52;99337.69;4130741;28;20016;-62
2023/01/16 06:03:17;;;;;;;;;;;;;;;3.29;75.58;99343.88;4129685;28;20533;-62
2023/01/16 06:05:20;;;;;;;;;;;;;;;3.29;75.56;99343.88;4130310;28;20496;-62
2023/01/16 06:07:22;;;;;;;;;;;;;;;3.30;75.55;99331.34;4130467;28;20008;-61
2023/01/16 06:09:24;;;;;;;;;;;;;;;3.32;75.39;99330.19;4129543;28;20021;-62
2023/01/16 06:11:26;;;;;;;;;;;;;;;3.34;75.33;99330.88;4129808;28;20366;-62
2023/01/16 06:13:28;;;;;;;;;;;;;;;3.36;75.18;99328.03;4129339;28;20012;-62
2023/01/16 06:15:30;;;;;;;;;;;;;;;3.39;75.12;99327.69;4129564;28;20016;-62
2023/01/16 06:17:32;;;;;;;;;;;;;;;3.38;75.10;99332.19;4127830;28;20515;-60
2023/01/16 06:19:34;;;;;;;;;;;;;;;3.40;74.83;99326.69;4129646;28;20005;-62
2023/01/16 06:21:37;;;;;;;;;;;;;;;3.40;75.13;99324.00;4129635;28;20029;-61
2023/01/16 06:23:39;;;;;;;;;;;;;;;3.42;75.08;99320.19;4129855;28;20549;-61
2023/01/16 06:25:42;;;;;;;;;;;;;;;3.41;75.24;99323.03;4129363;28;20020;-62
2023/01/16 06:27:47;;;;;;;;;;;;;;;3.41;75.41;99321.19;4128850;28;20010;-62
2023/01/16 06:29:49;;;;;;;;;;;;;;;3.40;75.35;99329.34;4130518;28;20028;-62
2023/01/16 06:31:51;;;;;;;;;;;;;;;3.39;75.41;99320.53;4129153;28;20472;-62
2023/01/16 06:33:53;;;;;;;;;;;;;;;3.40;75.25;99314.19;4130546;28;20024;-61
2023/01/16 06:35:55;;;;;;;;;;;;;;;3.40;75.28;99314.19;4130567;28;20012;-62
2023/01/16 06:37:58;;;;;;;;;;;;;;;3.41;75.35;99310.50;4130130;28;19996;-62
2023/01/16 06:40:01;;;;;;;;;;;;;;;3.41;75.27;99307.84;4130481;28;20446;-61
2023/01/16 06:42:04;;;;;;;;;;;;;;;3.40;75.26;99308.00;4129754;28;20343;-62
2023/01/16 06:44:06;;;;;;;;;;;;;;;3.39;75.04;99307.19;4130976;28;20024;-62
2023/01/16 06:46:09;;;;;;;;;;;;;;;3.37;74.97;99314.53;4131037;28;20025;-62
2023/01/16 06:48:11;;;;;;;;;;;;;;;3.37;75.23;99316.34;4129800;28;19961;-62
2023/01/16 06:50:12;;;;;;;;;;;;;;;3.34;75.38;99316.66;4130569;28;20004;-62
2023/01/16 06:52:15;;;;;;;;;;;;;;;3.33;75.43;99310.50;4130050;28;20343;-62
2023/01/16 06:54:18;;;;;;;;;;;;;;;3.32;75.49;99313.34;4130543;28;20393;-62
2023/01/16 06:56:20;;;;;;;;;;;;;;;3.30;75.50;99304.66;4130568;28;20020;-62
2023/01/16 06:58:22;;;;;;;;;;;;;;;3.31;75.51;99306.31;4129498;28;20020;-62
2023/01/16 07:00:24;;;;;;;;;;;;;;;3.32;75.38;99308.81;4130388;28;20028;-62
2023/01/16 07:02:26;;;;;;;;;;;;;;;3.32;75.29;99305.34;4127467;28;20358;-62
2023/01/16 07:04:28;;;;;;;;;;;;;;;3.31;75.47;99299.16;4128529;28;20016;-61
2023/01/16 07:06:30;;;;;;;;;;;;;;;3.33;75.28;99297.16;4129627;28;20028;-62
2023/01/16 07:08:33;;;;;;;;;;;;;;;3.33;75.26;99291.81;4124076;28;20035;-61
2023/01/16 07:10:36;;;;;;;;;;;;;;;3.32;75.03;99294.66;4125650;28;20024;-60
2023/01/16 07:12:38;;;;;;;;;;;;;;;3.32;75.50;99297.31;4124262;28;20472;-61
2023/01/16 07:23:59;;;;;;;;;;;;;;;3.29;75.52;99292.31;4125998;28;20029;-61
2023/01/16 07:26:03;;;;;;;;;;;;;;;3.31;75.30;99298.31;4124986;28;20020;-61
2023/01/16 07:28:05;;;;;;;;;;;;;;;3.31;75.44;99292.97;4125556;28;20012;-61
2023/01/16 07:30:08;;;;;;;;;;;;;;;3.31;75.39;99296.50;4126397;28;20291;-60
2023/01/16 07:32:10;;;;;;;;;;;;;;;3.32;75.31;99300.00;4127337;28;20354;-61
2023/01/16 07:34:12;;;;;;;;;;;;;;;3.32;75.05;99284.81;4118800;28;20032;-61
2023/01/16 07:36:14;;;;;;;;;;;;;;;3.31;74.99;99288.50;4126066;28;20036;-62
2023/01/16 07:38:16;;;;;;;;;;;;;;;3.32;75.31;99279.47;4117127;28;19929;-60
2023/01/16 07:40:18;;;;;;;;;;;;;;;3.33;75.27;99280.31;4127578;28;20490;-61
2023/01/16 07:42:21;;;;;;;;;;;;;;;3.36;75.17;99274.66;4115233;28;19930;-61
2023/01/16 07:44:23;;;;;;;;;;;;;;;3.35;74.98;99272.97;4112292;28;19930;-61
2023/01/16 07:46:25;;;;;;;;;;;;;;;3.35;75.06;99272.97;4116917;28;19929;-60
2023/01/16 07:48:27;;;;;;;;;;;;;;;3.38;75.15;99272.66;4128271;28;20017;-61
2023/01/16 07:50:29;;;;;;;;;;;;;;;3.38;74.81;99272.66;4129590;28;19921;-60
2023/01/16 07:52:31;;;;;;;;;;;;;;;3.37;74.82;99261.16;4128100;28;20020;-61
2023/01/16 07:54:35;;;;;;;;;;;;;;;3.36;74.89;99258.66;4128959;28;20033;-60
2023/01/16 07:56:37;;;;;;;;;;;;;;;3.36;75.02;99256.81;4127755;28;20044;-60
2023/01/16 07:58:42;;;;;;;;;;;;;;;3.38;74.94;99254.78;4128560;28;20096;-62
2023/01/16 08:00:44;;;;;;;;;;;;;;;3.37;74.83;99247.81;4127918;28;20012;-61
2023/01/16 08:02:46;;;;;;;;;;;;;;;3.39;74.84;99240.44;4128343;28;20016;-61
2023/01/16 08:04:48;;;;;;;;;;;;;;;3.39;74.94;99243.13;4127795;28;20045;-61
2023/01/16 08:06:50;;;;;;;;;;;;;;;3.41;74.74;99233.09;4126821;28;20024;-61
2023/01/16 08:08:52;;;;;;;;;;;;;;;3.40;74.67;99235.94;4128955;28;20012;-60
2023/01/16 08:10:54;;;;;;;;;;;;;;;3.41;74.93;99233.09;4128766;28;20052;-61
2023/01/16 08:12:57;;;;;;;;;;;;;;;3.41;74.66;99224.28;4126734;28;20020;-60
2023/01/16 08:15:00;;;;;;;;;;;;;;;3.42;74.80;99236.63;4128617;28;20032;-60
2023/01/16 08:17:02;;;;;;;;;;;;;;;3.42;74.53;99228.63;4127371;28;20020;-59
2023/01/16 08:19:04;;;;;;;;;;;;;;;3.41;74.44;99227.75;4128437;28;20012;-60
2023/01/16 08:21:06;;;;;;;;;;;;;;;3.39;73.95;99218.28;4128179;28;20025;-60
2023/01/16 08:23:08;;;;;;;;;;;;;;;3.40;74.20;99215.44;4127819;28;20024;-61
2023/01/16 08:25:10;;;;;;;;;;;;;;;3.40;73.87;99212.78;4128550;28;20028;-59
2023/01/16 08:27:12;;;;;;;;;;;;;;;3.41;73.85;99206.41;4128031;28;20048;-61
2023/01/16 08:29:14;;;;;;;;;;;;;;;3.40;73.99;99207.44;4128402;28;20016;-60
2023/01/16 08:31:18;;;;;;;;;;;;;;;3.41;74.05;99205.59;4127746;28;21515;-61
2023/01/16 08:33:20;;;;;;;;;;;;;;;3.44;74.03;99202.59;4127470;28;20008;-61
2023/01/16 08:35:22;;;;;;;;;;;;;;;3.45;73.99;99204.25;4128984;28;20043;-59
2023/01/16 08:37:24;;;;;;;;;;;;;;;3.47;74.01;99198.75;4127374;28;20028;-60
2023/01/16 08:39:27;;;;;;;;;;;;;;;3.48;73.67;99198.59;4128515;28;20025;-62
2023/01/16 08:53:16;;;;;;;;;;;;;;;3.64;73.15;99164.81;4130406;28;20394;-61
2023/01/16 08:55:18;;;;;;;;;;;;;;;3.65;72.75;99169.19;4130929;28;20032;-62
2023/01/16 08:57:20;;;;;;;;;;;;;;;3.64;72.49;99160.34;4130069;28;20004;-61
2023/01/16 08:59:22;;;;;;;;;;;;;;;3.63;72.25;99152.50;4131615;28;20017;-62
2023/01/16 09:01:25;;;;;;;;;;;;;;;3.64;72.32;99152.34;4131311;28;20009;-62
2023/01/16 09:03:27;;;;;;;;;;;;;;;3.65;72.08;99145.13;4130399;28;20016;-62
2023/01/16 09:05:30;;;;;;;;;;;;;;;3.60;72.15;99130.50;4132215;28;20715;-62
2023/01/16 09:07:32;;;;;;;;;;;;;;;3.61;71.98;99131.31;4131104;28;20531;-61
2023/01/16 09:09:34;;;;;;;;;;;;;;;3.60;72.03;99124.28;4131291;28;20012;-61
2023/01/16 09:14:00;;;;;;;;;;;;;;;3.61;72.09;99123.31;4132221;28;20365;-61
2023/01/16 09:16:02;;;;;;;;;;;;;;;3.63;72.10;99123.97;4131735;28;20020;-61
2023/01/16 09:18:04;;;;;;;;;;;;;;;3.63;71.87;99118.63;4131431;28;20009;-62
2023/01/16 09:20:07;;;;;;;;;;;;;;;3.67;71.84;99122.63;4131399;28;20030;-62
2023/01/16 09:22:10;;;;;;;;;;;;;;;3.69;72.24;99115.25;4128496;28;20028;-61
2023/01/16 09:24:12;;;;;;;;;;;;;;;3.75;71.92;99114.56;4130692;28;20613;-62
2023/01/16 09:26:14;;;;;;;;;;;;;;;3.79;71.89;99107.03;4107156;28;20025;-62
2023/01/16 09:28:17;;;;;;;;;;;;;;;3.86;71.95;99096.50;4130284;28;19996;-62
2023/01/16 09:30:19;;;;;;;;;;;;;;;3.91;72.06;99097.63;4130750;28;20056;-61
2023/01/16 09:32:21;;;;;;;;;;;;;;;4.01;72.28;99099.25;4130167;28;20013;-62
2023/01/16 09:34:23;;;;;;;;;;;;;;;4.07;71.98;99090.56;4131066;28;20352;-62
2023/01/16 09:36:25;;;;;;;;;;;;;;;4.13;71.67;99093.34;4131336;28;20010;-61
2023/01/16 09:38:29;;;;;;;;;;;;;;;4.18;71.27;99090.16;4130373;28;19997;-62
2023/01/16 09:40:30;;;;;;;;;;;;;;;4.22;71.28;99094.13;4130460;28;20029;-62
2023/01/16 09:44:55;;;;;;;;;;;;;;;4.34;71.25;99086.53;4144840;28;20016;-62
2023/01/16 09:46:57;;;;;;;;;;;;;;;4.41;71.25;99071.47;4129397;28;20024;-60
2023/01/16 09:48:59;;;;;;;;;;;;;;;4.46;71.01;99074.44;4130858;28;20404;-62
2023/01/16 09:51:02;;;;;;;;;;;;;;;4.55;70.75;99067.19;4129565;28;20012;-62
2023/01/16 10:00:08;;;;;;;;;;;;;;;4.83;69.20;99058.59;4128644;28;20017;-62
2023/01/16 10:02:15;;;;;;;;;;;;;;;4.87;69.90;99049.19;4128424;28;20025;-60
2023/01/16 10:04:18;;;;;;;;;;;;;;;4.91;69.96;99041.66;4128787;28;20012;-58
2023/01/16 10:06:22;;;;;;;;;;;;;;;4.98;69.80;99035.34;4127796;28;20016;-60
2023/01/16 10:08:24;;;;;;;;;;;;;;;5.08;69.50;99035.13;4127830;28;20032;-62
2023/01/16 10:10:34;;;;;;;;;;;;;;;5.15;68.97;99035.19;4112953;28;20475;-59
2023/01/16 10:12:36;;;;;;;;;;;;;;;5.21;68.83;99024.59;4130329;28;20012;-60
2023/01/16 10:14:51;;;;;;;;;;;;;;;5.28;68.35;99013.97;4131022;28;20016;-60
2023/01/16 10:16:58;;;;;;;;;;;;;;;5.36;67.85;99010.34;4129697;28;19928;-62
2023/01/16 10:19:01;;;;;;;;;;;;;;;5.41;66.74;99007.97;4129840;28;20447;-60
2023/01/16 10:21:13;;;;;;;;;;;;;;;5.45;67.12;99008.44;4129935;28;20711;-61
2023/01/16 10:23:19;;;;;;;;;;;;;;;5.49;66.66;98994.47;4129922;28;20017;-61
2023/01/16 10:25:23;;;;;;;;;;;;;;;5.53;66.48;98995.78;4130150;28;20048;-61
2023/01/16 10:27:29;;;;;;;;;;;;;;;5.56;66.18;98987.38;4121124;28;20163;-61
2023/01/16 10:29:32;;;;;;;;;;;;;;;5.58;66.61;98977.28;4130561;28;20016;-62
2023/01/16 10:31:34;;;;;;;;;;;;;;;5.60;66.49;98983.28;4112422;28;20016;-62
2023/01/16 10:33:39;;;;;;;;;;;;;;;5.63;66.86;98967.84;4128640;28;20622;-63
2023/01/16 10:35:43;;;;;;;;;;;;;;;5.66;66.49;98962.09;4130087;28;20012;-62
2023/01/16 10:37:45;;;;;;;;;;;;;;;5.69;66.82;98967.09;4129589;28;19930;-62
2023/01/16 10:39:47;;;;;;;;;;;;;;;5.71;67.22;98970.44;4129760;28;20028;-62
2023/01/16 10:51:15;;;;;;;;;;;;;;;5.94;66.16;98946.97;4129084;28;20016;-62
2023/01/16 10:53:17;;;;;;;;;;;;;;;6.01;65.65;98938.19;4128715;28;20020;-61
2023/01/16 10:55:19;;;;;;;;;;;;;;;6.04;64.53;98933.28;4129049;28;20020;-62
2023/01/16 10:57:21;;;;;;;;;;;;;;;6.05;65.99;98926.91;4129174;28;20466;-61
2023/01/16 10:59:24;;;;;;;;;;;;;;;6.15;65.57;98915.84;4129697;28;20008;-62
2023/01/16 11:01:26;;;;;;;;;;;;;;;6.23;64.77;98918.38;4129552;28;20052;-62
2023/01/16 11:03:33;;;;;;;;;;;;;;;6.30;64.91;98907.72;4128196;28;20013;-62
2023/01/16 11:05:36;;;;;;;;;;;;;;;6.36;65.50;98895.41;4129176;28;20016;-62
2023/01/16 11:07:38;;;;;;;;;;;;;;;6.40;65.50;98894.81;4128738;28;20105;-61
2023/01/16 11:09:40;;;;;;;;;;;;;;;6.47;65.01;98890.34;4129470;28;20004;-61
2023/01/16 11:18:47;;;;;;;;;;;;;;;6.57;62.39;98859.66;4127808;28;20009;-63
2023/01/16 11:20:50;;;;;;;;;;;;;;;6.57;64.19;98865.03;4144025;28;20028;-62
2023/01/16 11:22:56;;;;;;;;;;;;;;;6.58;63.56;98867.50;4127880;28;20380;-63
2023/01/16 11:25:00;;;;;;;;;;;;;;;6.57;64.69;98857.78;4129340;28;20000;-61
2023/01/16 11:27:03;;;;;;;;;;;;;;;6.58;64.97;98850.56;4128265;28;20012;-62
2023/01/16 11:29:08;;;;;;;;;;;;;;;6.62;65.21;98854.53;4126661;28;20019;-62
2023/01/16 11:31:12;;;;;;;;;;;;;;;6.67;64.97;98846.69;4127666;28;20021;-62
2023/01/16 11:33:16;;;;;;;;;;;;;;;6.68;65.14;98851.03;4127884;28;19957;-62
2023/01/16 11:35:18;;;;;;;;;;;;;;;6.73;64.67;98835.16;4129477;28;20623;-62
2023/01/16 11:37:20;;;;;;;;;;;;;;;6.74;64.74;98831.47;4128280;28;20036;-61
2023/01/16 11:39:23;;;;;;;;;;;;;;;6.76;64.75;98831.28;4122689;28;20019;-62
2023/01/16 11:41:25;;;;;;;;;;;;;;;6.78;64.31;98826.53;4126218;28;20107;-61
2023/01/16 11:46:02;;;;;;;;;;;;;;;6.86;63.72;98818.31;4127364;28;20012;-62